Pilot No 5 — WDC3840 — position and weather

sailwx.info

Track history (hours):
 
Tides and Currents Weather Stations Pressure Air Temp Water Temp Dewpoint Dewpoint Depression Visibility Wind Speed Wind Dir Waves Ship Positions

Pilot No 5

Owner: P E P INC, FT LAUDERDALE, FL. More information available from US FCC via Universal Licensing System and Coast Guard Vessel Documentation Center.

Last reported at 2016-Dec-05 09:33 UTC. Time now 2016-Dec-05 10:34 UTC.
Position N 26°04' W 080°07'.

Length 6 m.

Type: Pilot. MMSI: 367015090.

Date/timePositionNaut miles runAvg speedWind from/ knotsBaromVisibWave heightAir tempDewpointWater temp
2016-Dec-05 09:33N 26°04' W 080°07'0 0.2
2016-Dec-05 08:33N 26°05' W 080°07'1 0.9
2016-Dec-05 07:33N 26°05' W 080°07'1 0.6
2016-Dec-05 06:21N 26°06' W 080°07'5 5.8
2016-Dec-05 05:34N 26°06' W 080°02'5 4.6
2016-Dec-05 04:33N 26°06' W 080°07'4 3.8
2016-Dec-05 03:33N 26°06' W 080°03'4 3.7
2016-Dec-05 02:34N 26°04' W 080°07'2 1.5
2016-Dec-05 01:33N 26°06' W 080°07'0 0.3
2016-Dec-05 00:33N 26°06' W 080°07'1 0.9
2016-Dec-04 23:33N 26°05' W 080°07'0 0.5
2016-Dec-04 22:33N 26°05' W 080°07'1 1.3
2016-Dec-04 21:33N 26°06' W 080°05'1 1.5
2016-Dec-04 20:34N 26°05' W 080°07'1 0.8
2016-Dec-04 19:26N 26°06' W 080°07'3 3.1
2016-Dec-04 18:33N 26°05' W 080°05'1 0.6
2016-Dec-04 16:33N 26°06' W 080°06'1 1.3
2016-Dec-04 15:33N 26°05' W 080°07'1 1.0
2016-Dec-04 14:33N 26°04' W 080°07'3 2.8
2016-Dec-04 13:33N 26°05' W 080°04'3 2.8
2016-Dec-04 12:33N 26°06' W 080°07'0 0.3
2016-Dec-04 11:07N 26°06' W 080°07'5 8.7
2016-Dec-04 10:33N 26°05' W 080°02'0 0.5
2016-Dec-04 09:34N 26°05' W 080°03'1 1.4
2016-Dec-04 08:33N 26°05' W 080°04'3 2.9
2016-Dec-04 07:33N 26°04' W 080°07'3 2.6
2016-Dec-04 06:33N 26°06' W 080°05'2 1.9
2016-Dec-04 05:34N 26°05' W 080°07'0 0.3
2016-Dec-04 04:33N 26°05' W 080°07'0 0.0
2016-Dec-03 22:33N 26°05' W 080°07'0 0.2
2016-Dec-03 21:33N 26°05' W 080°07'1 0.9
2016-Dec-03 20:33N 26°06' W 080°08'0 0.2
2016-Dec-03 19:12N 26°06' W 080°07'1 1.2
2016-Dec-03 18:33N 26°05' W 080°07'0 0.1
2016-Dec-03 17:33N 26°05' W 080°07'0 0.2
2016-Dec-03 16:33N 26°05' W 080°07'1 1.0
2016-Dec-03 15:33N 26°04' W 080°07'1 1.0
2016-Dec-03 14:33N 26°05' W 080°07'0 0.3
2016-Dec-03 13:33N 26°06' W 080°07'0 0.0
2016-Dec-03 12:33N 26°06' W 080°07'0 0.2
2016-Dec-03 11:33N 26°06' W 080°07'0 0.2
2016-Dec-03 10:33N 26°05' W 080°07'0 0.2
2016-Dec-03 09:33N 26°05' W 080°07'2 2.3
2016-Dec-03 08:33N 26°06' W 080°05'2 2.5
2016-Dec-03 07:33N 26°04' W 080°07'2 0.2
2016-Dec-02 18:33N 26°06' W 080°07'0 0.0
2016-Dec-02 17:30N 26°06' W 080°07'0 0.0
2016-Dec-02 16:32N 26°06' W 080°07'0 0.0
2016-Dec-02 15:33N 26°06' W 080°07'0 0.0
2016-Dec-02 14:31N 26°06' W 080°07'0 0.0
2016-Dec-02 13:28N 26°06' W 080°07'0 0.0
2016-Dec-02 04:06N 26°06' W 080°07'2 3.5
2016-Dec-02 03:33N 26°05' W 080°05'2 1.7
2016-Dec-02 02:33N 26°06' W 080°07'1 0.4
2016-Dec-01 23:33N 26°06' W 080°06'1 1.4
2016-Dec-01 22:32N 26°06' W 080°07'0 0.0
2016-Dec-01 21:31N 26°06' W 080°07'1 0.7
2016-Dec-01 20:33N 26°06' W 080°07'1 0.2
2016-Dec-01 16:12N 26°06' W 080°07'0 0.0
2016-Dec-01 13:13N 26°06' W 080°07'0 0.0
2016-Dec-01 12:31N 26°06' W 080°07'1 1.4
2016-Dec-01 11:33N 26°06' W 080°06'0 0.1
2016-Dec-01 10:33N 26°06' W 080°06'1 1.0
2016-Dec-01 09:33N 26°06' W 080°07'2 2.3
2016-Dec-01 08:33N 26°06' W 080°05'2 0.7
2016-Dec-01 05:32N 26°06' W 080°07'0 0.4
2016-Dec-01 04:33N 26°06' W 080°07'1 0.5
2016-Dec-01 03:33N 26°06' W 080°07'0 0.0
2016-Dec-01 02:28N 26°06' W 080°07'0 0.0
2016-Dec-01 01:28N 26°06' W 080°07'0 0.0
2016-Dec-01 00:32N 26°06' W 080°07'0 0.0
2016-Nov-30 23:31N 26°06' W 080°07'0 0.0
2016-Nov-30 22:32N 26°06' W 080°07'0 0.0
2016-Nov-30 21:33N 26°06' W 080°07'0 0.0
2016-Nov-30 20:33N 26°06' W 080°07'0 0.0
2016-Nov-30 19:33N 26°06' W 080°07'0 0.0
2016-Nov-30 18:27N 26°06' W 080°07'0 0.0
2016-Nov-30 17:31N 26°06' W 080°07'0 0.0
2016-Nov-30 16:33N 26°06' W 080°07'0 0.0
2016-Nov-30 15:30N 26°06' W 080°07'0 0.2
2016-Nov-30 14:33N 26°06' W 080°07'1 0.8
2016-Nov-30 13:33N 26°05' W 080°07'1 1.0
2016-Nov-30 12:33N 26°06' W 080°07'1 0.9
2016-Nov-30 11:33N 26°05' W 080°07'0 0.1
2016-Nov-30 10:33N 26°05' W 080°07'1 0.7
2016-Nov-30 09:33N 26°06' W 080°07'0 0.2
2016-Nov-30 07:19N 26°06' W 080°07'1 1.1
2016-Nov-30 06:33N 26°05' W 080°07'0 0.3
2016-Nov-30 05:33N 26°05' W 080°07'1 1.3
2016-Nov-30 04:33N 26°06' W 080°06'2 0.8
2016-Nov-30 02:33N 26°06' W 080°07'0 0.0
2016-Nov-29 15:16N 26°06' W 080°07'1 1.1
2016-Nov-29 14:33N 26°05' W 080°07'0 0.2
2016-Nov-29 13:33N 26°05' W 080°07'1 0.3
2016-Nov-29 09:25N 26°06' W 080°07'1 0.9
2016-Nov-29 08:33N 26°05' W 080°07'3 2.7
2016-Nov-29 07:33N 26°05' W 080°04'2 2.5
2016-Nov-29 06:34N 26°05' W 080°07'1 1.0
2016-Nov-29 05:34N 26°06' W 080°07'0 0.1
2016-Nov-29 04:30N 26°06' W 080°07'1 0.8
2016-Nov-29 03:33N 26°05' W 080°07'1 0.5
2016-Nov-29 02:08N 26°06' W 080°07'3 5.5
2016-Nov-29 01:33N 26°06' W 080°04'3 2.9
2016-Nov-29 00:32N 26°06' W 080°07'2 2.4
2016-Nov-28 23:33N 26°06' W 080°05'1 0.7
2016-Nov-28 22:33N 26°06' W 080°05'2 1.5
2016-Nov-28 21:33N 26°06' W 080°07'0 0.1
2016-Nov-28 20:33N 26°05' W 080°07'1 0.1
2016-Nov-28 11:32N 26°06' W 080°07'2 1.7
2016-Nov-28 10:33N 26°06' W 080°06'1 1.1
2016-Nov-28 09:33N 26°06' W 080°07'1 1.4
2016-Nov-28 08:33N 26°05' W 080°05'1 1.5
2016-Nov-28 07:33N 26°06' W 080°07'1 0.7
2016-Nov-28 06:33N 26°05' W 080°07'1 0.8
2016-Nov-28 05:33N 26°06' W 080°06'1 0.2
2016-Nov-28 02:33N 26°06' W 080°07'1 0.5
2016-Nov-28 01:32N 26°05' W 080°07'0 0.3
2016-Nov-28 00:34N 26°06' W 080°07'0 0.1
2016-Nov-27 23:33N 26°06' W 080°07'1 1.1
2016-Nov-27 22:33N 26°04' W 080°07'1 1.3
2016-Nov-27 21:33N 26°06' W 080°06'1 0.9
2016-Nov-27 20:34N 26°06' W 080°07'0 0.0
2016-Nov-27 11:17N 26°06' W 080°07'2 3.4
2016-Nov-27 10:34N 26°05' W 080°05'2 2.3
2016-Nov-27 09:33N 26°06' W 080°07'1 1.4
2016-Nov-27 08:33N 26°04' W 080°07'1 0.6
2016-Nov-27 07:33N 26°05' W 080°07'1 1.1
2016-Nov-27 06:21N 26°06' W 080°07'1 0.3
2016-Nov-27 02:34N 26°06' W 080°06'1 0.9
2016-Nov-27 01:33N 26°05' W 080°07'1 0.8
2016-Nov-27 00:33N 26°05' W 080°07'0 0.3
2016-Nov-26 23:33N 26°05' W 080°07'1 1.0
2016-Nov-26 22:33N 26°06' W 080°06'0 0.3
2016-Nov-26 21:33N 26°06' W 080°05'2 1.5
2016-Nov-26 20:33N 26°06' W 080°07'1 0.1
2016-Nov-26 11:26N 26°06' W 080°07'1 0.7
2016-Nov-26 10:33N 26°06' W 080°07'2 1.8
2016-Nov-26 09:33N 26°06' W 080°05'2 1.6
2016-Nov-26 08:33N 26°06' W 080°07'2 1.6
2016-Nov-26 07:33N 26°05' W 080°05'2 1.9
2016-Nov-26 06:33N 26°04' W 080°07'2 1.8
2016-Nov-26 05:33N 26°06' W 080°07'1 1.1
2016-Nov-26 04:33N 26°06' W 080°06'0 0.0
2016-Nov-25 19:33N 26°06' W 080°07'1 0.5
2016-Nov-25 18:33N 26°05' W 080°07'0 0.4
2016-Nov-25 17:33N 26°06' W 080°07'0 0.4
2016-Nov-25 16:31N 26°06' W 080°07'2 2.4
2016-Nov-25 15:33N 26°06' W 080°05'3 2.5
2016-Nov-25 14:33N 26°04' W 080°07'1 1.1
2016-Nov-25 13:33N 26°05' W 080°07'2 1.8
2016-Nov-25 12:33N 26°05' W 080°05'0 0.4
2016-Nov-25 11:33N 26°05' W 080°05'2 2.2
2016-Nov-25 10:33N 26°05' W 080°07'  
Track history (hours):
 
Tides and Currents Weather Stations Pressure Air Temp Water Temp Dewpoint Dewpoint Depression Visibility Wind Speed Wind Dir Waves Ship Positions

Pilot No 5

Owner: P E P INC, FT LAUDERDALE, FL. More information available from US FCC via Universal Licensing System and Coast Guard Vessel Documentation Center.

Last reported at 2016-Dec-05 09:33 UTC. Time now 2016-Dec-05 10:34 UTC.
Position N 26°04' W 080°07'.

Length 6 m.

Type: Pilot. MMSI: 367015090.

Date/timePositionNaut miles runAvg speedWind from/ knotsBaromVisibWave heightAir tempDewpointWater temp
2016-Dec-05 09:33N 26°04' W 080°07'0 0.2
2016-Dec-05 08:33N 26°05' W 080°07'1 0.9
2016-Dec-05 07:33N 26°05' W 080°07'1 0.6
2016-Dec-05 06:21N 26°06' W 080°07'5 5.8
2016-Dec-05 05:34N 26°06' W 080°02'5 4.6
2016-Dec-05 04:33N 26°06' W 080°07'4 3.8
2016-Dec-05 03:33N 26°06' W 080°03'4 3.7
2016-Dec-05 02:34N 26°04' W 080°07'2 1.5
2016-Dec-05 01:33N 26°06' W 080°07'0 0.3
2016-Dec-05 00:33N 26°06' W 080°07'1 0.9
2016-Dec-04 23:33N 26°05' W 080°07'0 0.5
2016-Dec-04 22:33N 26°05' W 080°07'1 1.3
2016-Dec-04 21:33N 26°06' W 080°05'1 1.5
2016-Dec-04 20:34N 26°05' W 080°07'1 0.8
2016-Dec-04 19:26N 26°06' W 080°07'3 3.1
2016-Dec-04 18:33N 26°05' W 080°05'1 0.6
2016-Dec-04 16:33N 26°06' W 080°06'1 1.3
2016-Dec-04 15:33N 26°05' W 080°07'1 1.0
2016-Dec-04 14:33N 26°04' W 080°07'3 2.8
2016-Dec-04 13:33N 26°05' W 080°04'3 2.8
2016-Dec-04 12:33N 26°06' W 080°07'0 0.3
2016-Dec-04 11:07N 26°06' W 080°07'5 8.7
2016-Dec-04 10:33N 26°05' W 080°02'0 0.5
2016-Dec-04 09:34N 26°05' W 080°03'1 1.4
2016-Dec-04 08:33N 26°05' W 080°04'3 2.9
2016-Dec-04 07:33N 26°04' W 080°07'3 2.6
2016-Dec-04 06:33N 26°06' W 080°05'2 1.9
2016-Dec-04 05:34N 26°05' W 080°07'0 0.3
2016-Dec-04 04:33N 26°05' W 080°07'0 0.0
2016-Dec-03 22:33N 26°05' W 080°07'0 0.2
2016-Dec-03 21:33N 26°05' W 080°07'1 0.9
2016-Dec-03 20:33N 26°06' W 080°08'0 0.2
2016-Dec-03 19:12N 26°06' W 080°07'1 1.2
2016-Dec-03 18:33N 26°05' W 080°07'0 0.1
2016-Dec-03 17:33N 26°05' W 080°07'0 0.2
2016-Dec-03 16:33N 26°05' W 080°07'1 1.0
2016-Dec-03 15:33N 26°04' W 080°07'1 1.0
2016-Dec-03 14:33N 26°05' W 080°07'0 0.3
2016-Dec-03 13:33N 26°06' W 080°07'0 0.0
2016-Dec-03 12:33N 26°06' W 080°07'0 0.2
2016-Dec-03 11:33N 26°06' W 080°07'0 0.2
2016-Dec-03 10:33N 26°05' W 080°07'0 0.2
2016-Dec-03 09:33N 26°05' W 080°07'2 2.3
2016-Dec-03 08:33N 26°06' W 080°05'2 2.5
2016-Dec-03 07:33N 26°04' W 080°07'2 0.2
2016-Dec-02 18:33N 26°06' W 080°07'0 0.0
2016-Dec-02 17:30N 26°06' W 080°07'0 0.0
2016-Dec-02 16:32N 26°06' W 080°07'0 0.0
2016-Dec-02 15:33N 26°06' W 080°07'0 0.0
2016-Dec-02 14:31N 26°06' W 080°07'0 0.0
2016-Dec-02 13:28N 26°06' W 080°07'0 0.0
2016-Dec-02 04:06N 26°06' W 080°07'2 3.5
2016-Dec-02 03:33N 26°05' W 080°05'2 1.7
2016-Dec-02 02:33N 26°06' W 080°07'1 0.4
2016-Dec-01 23:33N 26°06' W 080°06'1 1.4
2016-Dec-01 22:32N 26°06' W 080°07'0 0.0
2016-Dec-01 21:31N 26°06' W 080°07'1 0.7
2016-Dec-01 20:33N 26°06' W 080°07'1 0.2
2016-Dec-01 16:12N 26°06' W 080°07'0 0.0
2016-Dec-01 13:13N 26°06' W 080°07'0 0.0
2016-Dec-01 12:31N 26°06' W 080°07'1 1.4
2016-Dec-01 11:33N 26°06' W 080°06'0 0.1
2016-Dec-01 10:33N 26°06' W 080°06'1 1.0
2016-Dec-01 09:33N 26°06' W 080°07'2 2.3
2016-Dec-01 08:33N 26°06' W 080°05'2 0.7
2016-Dec-01 05:32N 26°06' W 080°07'0 0.4
2016-Dec-01 04:33N 26°06' W 080°07'1 0.5
2016-Dec-01 03:33N 26°06' W 080°07'0 0.0
2016-Dec-01 02:28N 26°06' W 080°07'0 0.0
2016-Dec-01 01:28N 26°06' W 080°07'0 0.0
2016-Dec-01 00:32N 26°06' W 080°07'0 0.0
2016-Nov-30 23:31N 26°06' W 080°07'0 0.0
2016-Nov-30 22:32N 26°06' W 080°07'0 0.0
2016-Nov-30 21:33N 26°06' W 080°07'0 0.0
2016-Nov-30 20:33N 26°06' W 080°07'0 0.0
2016-Nov-30 19:33N 26°06' W 080°07'0 0.0
2016-Nov-30 18:27N 26°06' W 080°07'0 0.0
2016-Nov-30 17:31N 26°06' W 080°07'0 0.0
2016-Nov-30 16:33N 26°06' W 080°07'0 0.0
2016-Nov-30 15:30N 26°06' W 080°07'0 0.2
2016-Nov-30 14:33N 26°06' W 080°07'1 0.8
2016-Nov-30 13:33N 26°05' W 080°07'1 1.0
2016-Nov-30 12:33N 26°06' W 080°07'1 0.9
2016-Nov-30 11:33N 26°05' W 080°07'0 0.1
2016-Nov-30 10:33N 26°05' W 080°07'1 0.7
2016-Nov-30 09:33N 26°06' W 080°07'0 0.2
2016-Nov-30 07:19N 26°06' W 080°07'1 1.1
2016-Nov-30 06:33N 26°05' W 080°07'0 0.3
2016-Nov-30 05:33N 26°05' W 080°07'1 1.3
2016-Nov-30 04:33N 26°06' W 080°06'2 0.8
2016-Nov-30 02:33N 26°06' W 080°07'0 0.0
2016-Nov-29 15:16N 26°06' W 080°07'1 1.1
2016-Nov-29 14:33N 26°05' W 080°07'0 0.2
2016-Nov-29 13:33N 26°05' W 080°07'1 0.3
2016-Nov-29 09:25N 26°06' W 080°07'1 0.9
2016-Nov-29 08:33N 26°05' W 080°07'3 2.7
2016-Nov-29 07:33N 26°05' W 080°04'2 2.5
2016-Nov-29 06:34N 26°05' W 080°07'1 1.0
2016-Nov-29 05:34N 26°06' W 080°07'0 0.1
2016-Nov-29 04:30N 26°06' W 080°07'1 0.8
2016-Nov-29 03:33N 26°05' W 080°07'1 0.5
2016-Nov-29 02:08N 26°06' W 080°07'3 5.5
2016-Nov-29 01:33N 26°06' W 080°04'3 2.9
2016-Nov-29 00:32N 26°06' W 080°07'2 2.4
2016-Nov-28 23:33N 26°06' W 080°05'1 0.7
2016-Nov-28 22:33N 26°06' W 080°05'2 1.5
2016-Nov-28 21:33N 26°06' W 080°07'0 0.1
2016-Nov-28 20:33N 26°05' W 080°07'1 0.1
2016-Nov-28 11:32N 26°06' W 080°07'2 1.7
2016-Nov-28 10:33N 26°06' W 080°06'1 1.1
2016-Nov-28 09:33N 26°06' W 080°07'1 1.4
2016-Nov-28 08:33N 26°05' W 080°05'1 1.5
2016-Nov-28 07:33N 26°06' W 080°07'1 0.7
2016-Nov-28 06:33N 26°05' W 080°07'1 0.8
2016-Nov-28 05:33N 26°06' W 080°06'1 0.2
2016-Nov-28 02:33N 26°06' W 080°07'1 0.5
2016-Nov-28 01:32N 26°05' W 080°07'0 0.3
2016-Nov-28 00:34N 26°06' W 080°07'0 0.1
2016-Nov-27 23:33N 26°06' W 080°07'1 1.1
2016-Nov-27 22:33N 26°04' W 080°07'1 1.3
2016-Nov-27 21:33N 26°06' W 080°06'1 0.9
2016-Nov-27 20:34N 26°06' W 080°07'0 0.0
2016-Nov-27 11:17N 26°06' W 080°07'2 3.4
2016-Nov-27 10:34N 26°05' W 080°05'2 2.3
2016-Nov-27 09:33N 26°06' W 080°07'1 1.4
2016-Nov-27 08:33N 26°04' W 080°07'1 0.6
2016-Nov-27 07:33N 26°05' W 080°07'1 1.1
2016-Nov-27 06:21N 26°06' W 080°07'1 0.3
2016-Nov-27 02:34N 26°06' W 080°06'1 0.9
2016-Nov-27 01:33N 26°05' W 080°07'1 0.8
2016-Nov-27 00:33N 26°05' W 080°07'0 0.3
2016-Nov-26 23:33N 26°05' W 080°07'1 1.0
2016-Nov-26 22:33N 26°06' W 080°06'0 0.3
2016-Nov-26 21:33N 26°06' W 080°05'2 1.5
2016-Nov-26 20:33N 26°06' W 080°07'1 0.1
2016-Nov-26 11:26N 26°06' W 080°07'1 0.7
2016-Nov-26 10:33N 26°06' W 080°07'2 1.8
2016-Nov-26 09:33N 26°06' W 080°05'2 1.6
2016-Nov-26 08:33N 26°06' W 080°07'2 1.6
2016-Nov-26 07:33N 26°05' W 080°05'2 1.9
2016-Nov-26 06:33N 26°04' W 080°07'2 1.8
2016-Nov-26 05:33N 26°06' W 080°07'1 1.1
2016-Nov-26 04:33N 26°06' W 080°06'0 0.0
2016-Nov-25 19:33N 26°06' W 080°07'1 0.5
2016-Nov-25 18:33N 26°05' W 080°07'0 0.4
2016-Nov-25 17:33N 26°06' W 080°07'0 0.4
2016-Nov-25 16:31N 26°06' W 080°07'2 2.4
2016-Nov-25 15:33N 26°06' W 080°05'3 2.5
2016-Nov-25 14:33N 26°04' W 080°07'1 1.1
2016-Nov-25 13:33N 26°05' W 080°07'2 1.8
2016-Nov-25 12:33N 26°05' W 080°05'0 0.4
2016-Nov-25 11:33N 26°05' W 080°05'2 2.2
2016-Nov-25 10:33N 26°05' W 080°07'  

Dump ship's entire track history